This is the latest recevied weather packets stored in our database for station/object K2ATL. If no packets are shown the sender has not sent any weather packets the latest 10 day(s).
| Time | Temp. | Humidity | Pressure | Rain* | Wind** | Luminosity | Snow |
|---|---|---|---|---|---|---|---|
| 1788133772 | 28.33° C | 70% | 1106.2 hPa | 0 mm | - | 13 W/m² | - |
| 1788133467 | 29.44° C | 68% | 1106.3 hPa | 0 mm | - | 18 W/m² | - |
| 1788133162 | 28.89° C | 70% | 1106.3 hPa | 0 mm | - | 25 W/m² | - |
| 1788132858 | 28.89° C | 70% | 1106.4 hPa | 0 mm | - | 24 W/m² | - |
| 1788132553 | 30° C | 68% | 1106.3 hPa | 0 mm | - | 28 W/m² | - |
| 1788132249 | 30° C | 67% | 1106.3 hPa | 0 mm | - | 33 W/m² | - |
| 1788131946 | 30.56° C | 68% | 1106.5 hPa | 0 mm | - | 35 W/m² | - |
| 1788131640 | 30.56° C | 69% | 1106.4 hPa | 0 mm | - | 42 W/m² | - |
| 1788131340 | 32.22° C | 64% | 1106.5 hPa | 0 mm | - | 56 W/m² | - |
| 1788131035 | 31.11° C | 59% | 1106.5 hPa | 0 mm | - | 103 W/m² | - |
| 1788130734 | 31.11° C | 60% | 1106.5 hPa | 0 mm | - | 119 W/m² | - |
| 1788130430 | 31.67° C | 61% | 1106.6 hPa | 0 mm | - | 64 W/m² | - |
| 1788130125 | 31.11° C | 64% | 1106.3 hPa | 0 mm | - | 152 W/m² | - |
| 1788129818 | 31.11° C | 62% | 1106.4 hPa | 0 mm | - | 168 W/m² | - |
| 1788129515 | 30.56° C | 63% | 1106.4 hPa | 0 mm | - | 189 W/m² | - |
| 1788129212 | 30.56° C | 63% | 1106.5 hPa | 0 mm | - | 199 W/m² | - |
| 1788128911 | 30.56° C | 63% | 1106.6 hPa | 0 mm | - | 218 W/m² | - |
| 1788128606 | 31.11° C | 59% | 1106.5 hPa | 0 mm | - | 238 W/m² | - |
| 1788128301 | 30.56° C | 63% | 1106.3 hPa | 0 mm | - | 254 W/m² | - |
| 1788127998 | 30° C | 62% | 1106.4 hPa | 0 mm | - | 279 W/m² | - |
| 1788127698 | 28.89° C | 65% | 1106.4 hPa | 0 mm | - | 301 W/m² | - |
| 1788127398 | 28.89° C | 66% | 1106.5 hPa | 0 mm | - | 318 W/m² | - |
| 1788127095 | 29.44° C | 63% | 1106.5 hPa | 0 mm | - | 341 W/m² | - |
| 1788126790 | 28.89° C | 71% | 1106.4 hPa | 0 mm | - | 356 W/m² | - |
| 1788126486 | 28.89° C | 67% | 1106.4 hPa | 0 mm | - | 375 W/m² | - |
* Rain latest hour (hover to see other rain measurements)
** Current wind speed in m/s (hover to see current wind gust speed)